createdAt,value
2023-04-02T00:00:26.087Z,99352.09
2023-04-02T00:03:55.116Z,99356.62
2023-04-02T00:07:31.562Z,99364.03
2023-04-02T00:10:37.971Z,99361.09
2023-04-02T00:13:47.031Z,99371.13
2023-04-02T00:16:53.217Z,99374.97
2023-04-02T00:20:03.546Z,99377.78
2023-04-02T00:23:17.059Z,99376.97
2023-04-02T00:26:45.156Z,99379.25
2023-04-02T00:29:56.505Z,99385.94
2023-04-02T00:33:05.784Z,99380.09
2023-04-02T00:36:21.488Z,99378.56
2023-04-02T00:39:32.941Z,99377.19
2023-04-02T00:42:42.381Z,99378.91
2023-04-02T00:45:56.208Z,99375.91
2023-04-02T00:49:10.935Z,99381.38
2023-04-02T00:52:23.047Z,99382.25
2023-04-02T00:55:36.952Z,99383.28
2023-04-02T00:58:45.548Z,99385.47
2023-04-02T01:02:03.648Z,99385.19
2023-04-02T01:05:17.164Z,99390.03
2023-04-02T01:08:37.548Z,99391.78
2023-04-02T01:11:44.822Z,99392.41
2023-04-02T01:14:52.284Z,99391.41
2023-04-02T01:18:20.248Z,99391.03
2023-04-02T01:21:30.957Z,99392.06
2023-04-02T01:24:41.096Z,99395.22
2023-04-02T01:27:54.332Z,99385.47
2023-04-02T01:31:03.428Z,99389.59
2023-04-02T01:34:11.593Z,99382.25
2023-04-02T01:37:24.380Z,99387.38
2023-04-02T01:40:37.615Z,99390.56
2023-04-02T01:43:48.337Z,99390.41
2023-04-02T01:46:57.554Z,99387.09
2023-04-02T01:50:14.684Z,99390.47
2023-04-02T01:53:23.934Z,99396.69
2023-04-02T01:56:32.525Z,99395.31
2023-04-02T01:59:40.637Z,99401.06
2023-04-02T02:02:50.795Z,99411.84
2023-04-02T02:06:00.592Z,99407.94
2023-04-02T02:09:08.997Z,99413.66
2023-04-02T02:12:17.021Z,99405.34
2023-04-02T02:15:24.947Z,99407.81
2023-04-02T02:18:37.342Z,99412.38
2023-04-02T02:21:46.552Z,99414.00
2023-04-02T02:24:56.466Z,99420.03
2023-04-02T02:28:24.267Z,99422.31
2023-04-02T02:31:34.095Z,99418.94
2023-04-02T02:34:44.079Z,99418.12
2023-04-02T02:37:59.826Z,99416.72
2023-04-02T02:41:16.887Z,99420.47
2023-04-02T02:44:28.293Z,99418.00
2023-04-02T02:47:38.140Z,99424.19
2023-04-02T02:50:47.191Z,99411.69
2023-04-02T02:53:55.115Z,99416.34
2023-04-02T02:57:08.537Z,99419.44
2023-04-02T03:00:17.453Z,99417.09
2023-04-02T03:03:27.478Z,99419.09
2023-04-02T03:06:37.468Z,99414.63
2023-04-02T03:10:07.177Z,99413.78
2023-04-02T03:13:26.246Z,99418.78
2023-04-02T03:16:39.900Z,99414.03
2023-04-02T03:20:04.584Z,99421.84
2023-04-02T03:23:20.513Z,99417.94
2023-04-02T03:26:38.022Z,99417.31
2023-04-02T03:30:05.529Z,99427.69
2023-04-02T03:33:32.436Z,99427.81
2023-04-02T03:36:48.367Z,99425.81
2023-04-02T03:40:04.852Z,99435.19
2023-04-02T03:43:18.028Z,99428.91
2023-04-02T03:46:26.535Z,99429.63
2023-04-02T03:49:36.354Z,99432.34
2023-04-02T03:52:45.669Z,99434.44
2023-04-02T03:55:54.091Z,99434.84
2023-04-02T03:59:07.865Z,99436.97
2023-04-02T04:02:20.793Z,99442.78
2023-04-02T04:05:32.783Z,99443.50
2023-04-02T04:08:56.142Z,99445.88
2023-04-02T04:12:25.337Z,99448.38
2023-04-02T04:15:32.662Z,99454.53
2023-04-02T04:18:46.421Z,99462.38
2023-04-02T04:21:59.263Z,99456.09
2023-04-02T04:25:08.095Z,99462.09
2023-04-02T04:28:28.549Z,99465.28
2023-04-02T04:31:57.624Z,99462.69
2023-04-02T04:35:10.108Z,99460.59
2023-04-02T04:38:23.936Z,99470.47
2023-04-02T04:41:36.353Z,99468.06
2023-04-02T04:45:02.336Z,99458.13
2023-04-02T04:48:18.597Z,99459.31
2023-04-02T04:51:36.203Z,99455.53
2023-04-02T04:54:44.235Z,99474.09
2023-04-02T04:57:51.978Z,99466.94
2023-04-02T05:01:06.946Z,99474.81
2023-04-02T05:04:40.672Z,99471.91
2023-04-02T05:07:54.213Z,99467.03
2023-04-02T05:11:05.999Z,99475.03
2023-04-02T05:14:30.107Z,99474.50
2023-04-02T05:17:42.729Z,99473.25
2023-04-02T05:21:01.258Z,99478.75
2023-04-02T05:24:28.683Z,99494.91
2023-04-02T05:27:48.044Z,99496.09
2023-04-02T05:31:02.596Z,99495.91
2023-04-02T05:34:10.249Z,99492.69
2023-04-02T05:37:20.282Z,99491.16
2023-04-02T05:40:34.096Z,99495.91
2023-04-02T05:43:42.168Z,99504.09
2023-04-02T05:47:04.343Z,99513.47
2023-04-02T05:50:24.972Z,99507.66
2023-04-02T05:53:38.368Z,99514.00
2023-04-02T05:56:49.799Z,99517.16
2023-04-02T05:59:58.776Z,99517.59
2023-04-02T06:03:18.165Z,99522.06
2023-04-02T06:06:48.038Z,99520.13
2023-04-02T06:10:08.577Z,99524.56
2023-04-02T06:13:18.388Z,99521.25
2023-04-02T06:16:27.076Z,99528.66
2023-04-02T06:19:39.517Z,99518.81
2023-04-02T06:22:54.457Z,99519.00
2023-04-02T06:26:02.059Z,99520.66
2023-04-02T06:29:14.509Z,99526.09
2023-04-02T06:32:28.116Z,99532.62
2023-04-02T06:35:38.133Z,99529.72
2023-04-02T06:38:49.752Z,99535.13
2023-04-02T06:42:05.773Z,99537.25
2023-04-02T06:45:30.951Z,99542.38
2023-04-02T06:48:40.441Z,99542.13
2023-04-02T06:51:50.993Z,99547.69
2023-04-02T06:55:00.544Z,99544.34
2023-04-02T06:58:14.782Z,99547.72
2023-04-02T07:01:25.538Z,99551.59
2023-04-02T07:04:36.404Z,99549.50
2023-04-02T07:07:46.389Z,99551.81
2023-04-02T07:10:55.380Z,99550.78
2023-04-02T07:14:07.357Z,99546.91
2023-04-02T07:17:17.813Z,99568.56
2023-04-02T07:20:28.064Z,99557.94
2023-04-02T07:23:37.246Z,99568.03
2023-04-02T07:26:42.458Z,99563.06
2023-04-02T07:29:52.274Z,99560.81
2023-04-02T07:32:59.402Z,99557.28
2023-04-02T07:36:08.074Z,99572.22
2023-04-02T07:39:14.718Z,99586.03
2023-04-02T07:42:22.209Z,99576.81
2023-04-02T07:45:28.039Z,99575.56
2023-04-02T07:48:34.994Z,99586.94
2023-04-02T07:51:43.312Z,99585.44
2023-04-02T07:54:52.538Z,99591.97
2023-04-02T07:58:00.614Z,99601.34
2023-04-02T08:01:16.539Z,99602.41
2023-04-02T08:04:24.755Z,99593.41
2023-04-02T08:07:33.697Z,99603.59
2023-04-02T08:10:40.399Z,99608.66
2023-04-02T08:13:46.932Z,99607.59
2023-04-02T08:16:56.403Z,99608.72
2023-04-02T08:20:03.336Z,99619.94
2023-04-02T08:23:19.133Z,99614.31
2023-04-02T08:26:26.541Z,99631.94
2023-04-02T08:29:35.767Z,99613.28
2023-04-02T08:32:43.608Z,99622.13
2023-04-02T08:35:53.248Z,99632.09
2023-04-02T08:39:01.678Z,99632.28
2023-04-02T08:42:30.725Z,99630.56
2023-04-02T08:45:43.798Z,99632.09
2023-04-02T08:49:00.044Z,99632.38
2023-04-02T08:52:08.089Z,99626.25
2023-04-02T08:55:36.949Z,99635.37
2023-04-02T08:58:45.172Z,99637.00
2023-04-02T09:01:58.126Z,99633.66
2023-04-02T09:05:09.224Z,99634.44
2023-04-02T09:08:18.098Z,99635.03
2023-04-02T09:11:23.491Z,99638.09
2023-04-02T09:14:46.411Z,99634.00
2023-04-02T09:18:00.037Z,99644.03
2023-04-02T09:21:14.848Z,99636.44
2023-04-02T09:24:22.754Z,99633.91
2023-04-02T09:27:33.903Z,99639.28
2023-04-02T09:30:53.335Z,99637.50
2023-04-02T09:33:58.438Z,99639.53
2023-04-02T09:37:15.274Z,99652.28
2023-04-02T09:40:26.497Z,99645.47
2023-04-02T09:43:40.814Z,99665.19
2023-04-02T09:46:49.508Z,99667.53
2023-04-02T09:49:56.663Z,99665.28
2023-04-02T09:53:27.463Z,99661.88
2023-04-02T09:56:40.472Z,99667.84
2023-04-02T10:00:14.652Z,99661.81
2023-04-02T10:03:30.831Z,99660.75
2023-04-02T10:06:40.933Z,99675.75
2023-04-02T10:09:59.909Z,99665.13
2023-04-02T10:13:08.561Z,99674.22
2023-04-02T10:16:25.768Z,99668.59
2023-04-02T10:19:42.240Z,99678.53
2023-04-02T10:22:51.200Z,99666.19
2023-04-02T10:26:08.591Z,99665.31
2023-04-02T10:29:25.871Z,99665.00
2023-04-02T10:32:30.881Z,99661.28
2023-04-02T10:36:05.352Z,99672.34
2023-04-02T10:39:38.316Z,99655.47
2023-04-02T10:43:14.381Z,99658.94
2023-04-02T10:46:33.498Z,99667.16
2023-04-02T10:49:49.500Z,99656.97
2023-04-02T10:53:03.837Z,99659.25
2023-04-02T10:56:10.723Z,99648.88
2023-04-02T10:59:28.070Z,99659.38
2023-04-02T11:02:44.474Z,99644.88
2023-04-02T11:05:52.765Z,99648.97
2023-04-02T11:09:05.700Z,99662.59
2023-04-02T11:12:24.637Z,99647.69
2023-04-02T11:15:31.108Z,99665.50
2023-04-02T11:18:39.030Z,99650.06
2023-04-02T11:21:57.882Z,99657.56
2023-04-02T11:25:05.237Z,99665.37
2023-04-02T11:28:17.201Z,99653.94
2023-04-02T11:31:23.126Z,99649.84
2023-04-02T11:34:56.380Z,99648.22
2023-04-02T11:38:11.617Z,99637.31
2023-04-02T11:41:37.395Z,99638.38
2023-04-02T11:44:44.113Z,99639.31
2023-04-02T11:48:01.321Z,99646.97
2023-04-02T11:51:24.216Z,99636.66
2023-04-02T11:54:38.197Z,99637.81
2023-04-02T11:57:57.982Z,99644.44
2023-04-02T12:01:02.834Z,99640.59
2023-04-02T12:04:13.133Z,99644.34
2023-04-02T12:07:28.077Z,99639.06
2023-04-02T12:10:36.368Z,99630.72
2023-04-02T12:13:43.023Z,99632.25
2023-04-02T12:16:49.583Z,99625.13
2023-04-02T12:19:56.958Z,99634.47
2023-04-02T12:23:04.195Z,99625.59
2023-04-02T12:26:27.636Z,99625.63
2023-04-02T12:29:35.702Z,99622.16
2023-04-02T12:32:42.624Z,99620.19
2023-04-02T12:35:57.183Z,99615.38
2023-04-02T12:39:03.318Z,99607.84
2023-04-02T12:42:27.306Z,99618.97
2023-04-02T12:45:36.374Z,99604.81
2023-04-02T12:48:43.441Z,99611.63
2023-04-02T12:51:51.338Z,99606.63
2023-04-02T12:55:01.277Z,99601.09
2023-04-02T12:58:26.845Z,99605.09
2023-04-02T13:01:35.809Z,99602.78
2023-04-02T13:04:54.467Z,99596.16
2023-04-02T13:08:01.386Z,99599.31
2023-04-02T13:11:07.371Z,99606.06
2023-04-02T13:14:19.844Z,99615.06
2023-04-02T13:17:39.064Z,99606.19
2023-04-02T13:21:00.621Z,99608.53
2023-04-02T13:24:06.358Z,99613.44
2023-04-02T13:27:13.991Z,99610.13
2023-04-02T13:30:24.014Z,99608.38
2023-04-02T13:33:33.710Z,99610.25
2023-04-02T13:36:39.233Z,99602.41
2023-04-02T13:39:45.581Z,99617.59
2023-04-02T13:42:50.687Z,99604.78
2023-04-02T13:45:55.888Z,99619.34
2023-04-02T13:49:01.255Z,99605.94
2023-04-02T13:52:15.613Z,99610.97
2023-04-02T13:55:28.544Z,99610.50
2023-04-02T13:58:36.846Z,99608.19
2023-04-02T14:01:45.109Z,99601.41
2023-04-02T14:04:55.836Z,99605.03
2023-04-02T14:08:01.528Z,99605.94
2023-04-02T14:11:29.168Z,99595.31
2023-04-02T14:14:48.154Z,99599.69
2023-04-02T14:18:11.698Z,99585.28
2023-04-02T14:21:34.224Z,99597.09
2023-04-02T14:24:49.457Z,99596.75
2023-04-02T14:28:02.195Z,99606.97
2023-04-02T14:31:19.984Z,99610.97
2023-04-02T14:34:52.119Z,99599.81
2023-04-02T14:38:01.610Z,99626.66
2023-04-02T14:41:27.138Z,99621.00
2023-04-02T14:44:37.421Z,99634.44
2023-04-02T14:47:49.804Z,99647.19
2023-04-02T14:50:59.026Z,99664.38
2023-04-02T14:54:07.176Z,99654.06
2023-04-02T14:57:13.148Z,99672.28
2023-04-02T15:00:29.664Z,99674.59
2023-04-02T15:03:46.201Z,99674.19
2023-04-02T15:06:54.313Z,99687.56
2023-04-02T15:10:20.963Z,99689.09
2023-04-02T15:13:29.451Z,99687.28
2023-04-02T15:16:37.258Z,99698.84
2023-04-02T15:19:42.779Z,99715.66
2023-04-02T15:23:06.851Z,99727.22
2023-04-02T15:26:13.228Z,99740.94
2023-04-02T15:29:42.120Z,99731.06
2023-04-02T15:32:50.174Z,99723.88
2023-04-02T15:36:14.392Z,99727.75
2023-04-02T15:39:52.190Z,99721.00
2023-04-02T15:42:58.997Z,99731.34
2023-04-02T15:46:11.097Z,99725.09
2023-04-02T15:49:43.122Z,99722.41
2023-04-02T15:53:04.401Z,99713.84
2023-04-02T15:56:17.816Z,99710.13
2023-04-02T15:59:51.179Z,99712.69
2023-04-02T16:03:19.469Z,99715.00
2023-04-02T16:06:30.235Z,99713.22
2023-04-02T16:09:46.718Z,99706.09
2023-04-02T16:12:55.062Z,99712.13
2023-04-02T16:16:08.613Z,99704.97
2023-04-02T16:19:34.009Z,99709.84
2023-04-02T16:25:58.183Z,99723.88
2023-04-02T16:29:19.716Z,99724.28
2023-04-02T16:32:27.321Z,99728.88
2023-04-02T16:35:47.092Z,99735.47
2023-04-02T16:39:17.008Z,99749.97
2023-04-02T16:42:32.125Z,99750.97
2023-04-02T16:45:44.563Z,99756.34
2023-04-02T16:48:55.707Z,99764.53
2023-04-02T16:52:16.791Z,99768.19
2023-04-02T16:55:33.198Z,99760.28
2023-04-02T16:58:49.731Z,99759.84
2023-04-02T17:02:10.744Z,99774.69
2023-04-02T17:05:22.933Z,99773.25
2023-04-02T17:08:32.117Z,99782.53
2023-04-02T17:11:49.467Z,99784.62
2023-04-02T17:15:02.374Z,99801.75
2023-04-02T17:18:17.578Z,99801.38
2023-04-02T17:21:27.587Z,99804.53
2023-04-02T17:24:43.636Z,99814.31
2023-04-02T17:27:52.374Z,99816.69
2023-04-02T17:30:59.805Z,99808.34
2023-04-02T17:34:14.125Z,99827.19
2023-04-02T17:37:28.320Z,99826.72
2023-04-02T17:40:40.471Z,99839.94
2023-04-02T17:43:52.224Z,99837.09
2023-04-02T17:47:05.485Z,99845.31
2023-04-02T17:50:36.570Z,99840.44
2023-04-02T17:53:48.533Z,99844.31
2023-04-02T17:57:13.911Z,99852.00
2023-04-02T18:00:38.446Z,99863.84
2023-04-02T18:04:02.501Z,99868.84
2023-04-02T18:07:20.014Z,99855.84
2023-04-02T18:10:44.301Z,99869.13
2023-04-02T18:13:55.763Z,99874.97
2023-04-02T18:17:08.455Z,99883.09
2023-04-02T18:20:36.134Z,99881.47
2023-04-02T18:23:44.637Z,99893.06
2023-04-02T18:26:56.118Z,99900.03
2023-04-02T18:30:14.035Z,99906.12
2023-04-02T18:33:35.398Z,99917.41
2023-04-02T18:37:00.148Z,99927.13
2023-04-02T18:40:24.516Z,99926.66
2023-04-02T18:43:33.763Z,99939.22
2023-04-02T18:46:53.907Z,99947.00
2023-04-02T18:50:18.800Z,99954.25
2023-04-02T18:53:26.074Z,99953.75
2023-04-02T18:56:32.593Z,99951.94
2023-04-02T18:59:42.230Z,99963.16
2023-04-02T19:02:52.839Z,99965.81
2023-04-02T19:06:02.708Z,99977.22
2023-04-02T19:09:18.081Z,99978.47
2023-04-02T19:12:24.689Z,99979.78
2023-04-02T19:15:38.584Z,99987.00
2023-04-02T19:18:52.036Z,99985.34
2023-04-02T19:22:31.140Z,99989.28
2023-04-02T19:26:05.944Z,99996.66
2023-04-02T19:29:12.264Z,99995.16
2023-04-02T19:32:33.964Z,100008.00
2023-04-02T19:35:42.255Z,100009.59
2023-04-02T19:39:01.492Z,100010.06
2023-04-02T19:42:25.013Z,100015.94
2023-04-02T22:45:07.984Z,100242.00
2023-04-02T22:48:11.311Z,100242.00
2023-04-02T22:51:16.111Z,100259.28
2023-04-02T22:54:18.849Z,100251.41
2023-04-02T22:57:21.544Z,100258.75
2023-04-02T23:00:25.093Z,100265.53
2023-04-02T23:03:27.641Z,100265.22
2023-04-02T23:06:31.144Z,100263.87
2023-04-02T23:09:33.633Z,100269.28
2023-04-02T23:12:36.612Z,100271.78
2023-04-02T23:15:39.110Z,100264.72
2023-04-02T23:18:48.046Z,100271.94
2023-04-02T23:21:51.575Z,100272.94
2023-04-02T23:24:54.592Z,100276.66
2023-04-02T23:27:57.127Z,100277.63
2023-04-02T23:31:01.634Z,100280.56
2023-04-02T23:34:04.504Z,100274.31
2023-04-02T23:37:07.344Z,100281.69
2023-04-02T23:40:10.330Z,100279.88
2023-04-02T23:43:13.106Z,100280.16
2023-04-02T23:46:15.803Z,100283.50
2023-04-02T23:49:19.154Z,100288.88
2023-04-02T23:52:21.618Z,100281.53
2023-04-02T23:55:25.096Z,100288.19
2023-04-02T23:58:27.639Z,100294.56
